Time;durP1;ratioP1;P1;durP2;ratioP2;P2;SDS_P1;SDS_P2;PMS_P1;PMS_P2;Temp;Humidity;BMP_temperature;BMP_pressure;BME280_temperature;BME280_humidity;BME280_pressure;Samples;Min_cycle;Max_cycle;Signal;HPM_P1;HPM_P2
2023/08/21 00:01:21;;;;;;;7.50;6.80;;;;;;;28.02;55.12;101470.78;5036908;28;20060;-55
2023/08/21 00:03:49;;;;;;;8.60;6.95;;;;;;;28.03;54.80;101468.91;5035571;28;20049;-54
2023/08/21 00:06:16;;;;;;;7.55;6.85;;;;;;;28.04;55.05;101476.06;5035877;28;20053;-55
2023/08/21 00:08:43;;;;;;;7.60;6.75;;;;;;;28.03;55.13;101475.19;5035787;28;20502;-56
2023/08/21 00:11:11;;;;;;;7.97;6.63;;;;;;;28.03;54.75;101477.91;5035401;28;20484;-57
2023/08/21 00:13:38;;;;;;;7.60;6.80;;;;;;;28.04;55.14;101473.34;5036049;28;20393;-56
2023/08/21 00:16:05;;;;;;;7.13;6.43;;;;;;;28.04;55.02;101479.63;5044378;28;20050;-57
2023/08/21 00:18:33;;;;;;;7.25;6.55;;;;;;;28.06;55.13;101479.44;5035721;28;20483;-55
2023/08/21 00:21:01;;;;;;;7.97;6.82;;;;;;;28.06;55.25;101476.72;5036298;28;20843;-55
2023/08/21 00:23:29;;;;;;;7.45;6.63;;;;;;;28.05;54.83;101475.88;5034994;28;20056;-55
2023/08/21 00:25:56;;;;;;;7.80;7.00;;;;;;;28.06;54.73;101480.28;5035154;28;20049;-55
2023/08/21 00:28:23;;;;;;;8.45;7.65;;;;;;;28.06;55.10;101472.13;5040663;28;20488;-56
2023/08/21 00:30:51;;;;;;;7.15;6.40;;;;;;;28.08;55.11;101470.09;5035915;28;20076;-56
2023/08/21 00:33:18;;;;;;;8.10;7.03;;;;;;;28.09;54.75;101474.50;5036636;28;20056;-56
2023/08/21 00:35:46;;;;;;;7.07;6.38;;;;;;;28.10;55.24;101480.78;5035697;28;20054;-57
2023/08/21 00:38:13;;;;;;;6.90;6.20;;;;;;;28.10;54.96;101478.06;5035710;28;20053;-56
2023/08/21 00:40:41;;;;;;;7.47;6.78;;;;;;;28.12;54.82;101475.19;5034494;28;20049;-56
2023/08/21 00:43:08;;;;;;;6.97;6.28;;;;;;;28.12;55.09;101467.03;5050413;28;20049;-56
2023/08/21 00:45:40;;;;;;;7.57;6.88;;;;;;;28.12;54.87;101477.91;5034165;28;20049;-56
2023/08/21 00:48:09;;;;;;;;;;;;;;;28.10;54.76;101469.91;5052643;28;20384;-55
2023/08/21 00:50:38;;;;;;;7.07;6.38;;;;;;;28.12;55.16;101470.59;5034230;28;19925;-55
2023/08/21 00:53:06;;;;;;;8.18;7.32;;;;;;;28.12;55.06;101476.03;5045291;28;20411;-55
2023/08/21 00:55:34;;;;;;;7.15;6.45;;;;;;;28.12;54.72;101467.88;5034944;28;20049;-55
2023/08/21 00:58:03;;;;;;;7.47;6.78;;;;;;;28.13;54.64;101468.72;5033108;28;20404;-56
2023/08/21 01:00:31;;;;;;;7.68;6.88;;;;;;;28.13;55.06;101466.00;5033327;28;20057;-56
2023/08/21 01:02:58;;;;;;;8.27;7.47;;;;;;;28.14;54.70;101467.69;5033764;28;20053;-56
2023/08/21 01:05:26;;;;;;;7.13;6.45;;;;;;;28.14;55.15;101464.97;5034913;28;20050;-56
2023/08/21 01:08:04;;;;;;;6.57;5.97;;;;;;;28.16;54.79;101471.09;5034358;28;20065;-55
2023/08/21 01:10:45;;;;;;;7.60;6.80;;;;;;;28.15;54.89;101466.66;5034555;28;20112;-55
2023/08/21 01:13:40;;;;;;;7.20;6.50;;;;;;;28.16;54.76;101477.38;5049209;28;20060;-55
2023/08/21 01:16:11;;;;;;;7.80;7.10;;;;;;;28.17;55.05;101472.78;5039797;28;20061;-55
2023/08/21 01:18:39;;;;;;;7.20;6.55;;;;;;;28.16;54.74;101476.53;5034991;28;20045;-55
2023/08/21 01:21:08;;;;;;;8.30;7.50;;;;;;;28.17;54.92;101475.50;5033049;28;20053;-55
2023/08/21 01:23:36;;;;;;;7.07;6.38;;;;;;;28.18;54.89;101477.19;5033235;28;20049;-55
2023/08/21 01:26:04;;;;;;;7.55;6.82;;;;;;;28.18;55.23;101477.19;5034755;28;20072;-54
2023/08/21 01:28:33;;;;;;;7.65;6.90;;;;;;;28.19;54.90;101470.72;5034314;28;20056;-55
2023/08/21 01:31:24;;;;;;;7.15;6.38;;;;;;;28.20;55.26;101480.63;5048626;28;20499;-53
2023/08/21 01:33:58;;;;;;;7.63;6.93;;;;;;;28.19;55.11;101479.72;5036302;28;20424;-55
2023/08/21 01:36:26;;;;;;;7.15;6.47;;;;;;;28.20;54.97;101486.91;5048391;28;20419;-55
2023/08/21 01:38:53;;;;;;;7.53;6.82;;;;;;;28.20;55.16;101484.19;5043073;28;20049;-56
2023/08/21 01:41:26;;;;;;;7.60;6.95;;;;;;;28.22;54.96;101494.88;5047013;28;20048;-57
2023/08/21 01:43:54;;;;;;;7.57;6.78;;;;;;;28.21;55.24;101485.88;5037935;28;20049;-57
2023/08/21 01:46:21;;;;;;;7.38;6.68;;;;;;;28.22;54.94;101484.00;5046046;28;20053;-57
2023/08/21 01:48:49;;;;;;;7.97;7.13;;;;;;;28.23;55.15;101493.84;5044166;28;20049;-55
2023/08/21 01:51:16;;;;;;;7.15;6.45;;;;;;;28.21;55.15;101494.03;5039364;28;20045;-55
2023/08/21 01:53:44;;;;;;;6.75;6.15;;;;;;;28.22;55.04;101492.16;5047727;28;20056;-55
2023/08/21 01:56:11;;;;;;;7.30;6.68;;;;;;;28.23;55.38;101493.84;5038633;28;20049;-55
2023/08/21 01:58:39;;;;;;;7.68;6.97;;;;;;;28.22;55.27;101487.56;5046201;28;20053;-56
2023/08/21 02:01:06;;;;;;;7.93;7.22;;;;;;;28.24;55.07;101495.56;5032977;28;20045;-57
2023/08/21 02:03:34;;;;;;;7.00;6.30;;;;;;;28.24;55.04;101498.28;5048931;28;20045;-55
2023/08/21 02:06:01;;;;;;;7.70;7.00;;;;;;;28.24;55.01;101492.84;5037598;28;20057;-54
2023/08/21 02:08:33;;;;;;;7.72;6.43;;;;;;;28.23;55.24;101486.53;5041285;28;20419;-54
2023/08/21 02:11:01;;;;;;;7.28;6.68;;;;;;;28.24;55.31;101492.84;5045660;28;20041;-55
2023/08/21 02:13:29;;;;;;;8.20;7.40;;;;;;;28.25;55.13;101494.53;5035709;28;20053;-55
2023/08/21 02:15:56;;;;;;;7.25;6.40;;;;;;;28.25;55.45;101498.13;5041498;28;20049;-54
2023/08/21 02:18:24;;;;;;;7.47;6.78;;;;;;;28.25;55.50;101497.25;5034087;28;20057;-55
2023/08/21 02:20:51;;;;;;;7.25;6.55;;;;;;;28.25;55.39;101495.38;5033898;28;20037;-54
2023/08/21 02:23:18;;;;;;;7.53;6.72;;;;;;;28.25;55.06;101492.66;5033371;28;20049;-54
2023/08/21 02:25:46;;;;;;;7.80;6.72;;;;;;;28.25;55.52;101495.38;5034106;28;20041;-55
2023/08/21 02:28:13;;;;;;;7.72;6.95;;;;;;;28.26;55.17;101497.06;5033316;28;20049;-57
2023/08/21 02:30:41;;;;;;;7.38;6.63;;;;;;;28.26;55.27;101491.63;5034139;28;20043;-56
2023/08/21 02:33:09;;;;;;;8.45;6.60;;;;;;;28.26;55.56;101497.06;5032010;28;20415;-57
2023/08/21 02:35:38;;;;;;;8.52;7.72;;;;;;;28.28;55.16;101483.31;5032988;28;20061;-56
2023/08/21 02:38:06;;;;;;;7.65;6.95;;;;;;;28.27;55.06;101492.47;5044807;28;20049;-55
2023/08/21 02:40:35;;;;;;;7.35;6.65;;;;;;;28.27;55.30;101492.47;5037746;28;20060;-55
2023/08/21 02:43:03;;;;;;;7.32;6.28;;;;;;;28.28;55.04;101483.31;5033970;28;20061;-55
2023/08/21 02:45:31;;;;;;;8.35;7.55;;;;;;;28.29;55.30;101487.72;5032271;28;20057;-55
2023/08/21 02:47:58;;;;;;;7.25;6.55;;;;;;;28.28;55.28;101488.75;5037152;28;20049;-56
2023/08/21 02:50:26;;;;;;;7.03;6.32;;;;;;;28.29;55.11;101485.00;5033762;28;20056;-57
2023/08/21 02:52:53;;;;;;;7.85;7.15;;;;;;;28.27;55.47;101482.44;5035513;28;20046;-56
2023/08/21 02:55:21;;;;;;;7.00;6.38;;;;;;;28.29;55.19;101485.00;5033485;28;20068;-57
2023/08/21 02:57:48;;;;;;;7.50;6.80;;;;;;;28.30;55.53;101481.25;5033225;28;20057;-55
2023/08/21 03:00:16;;;;;;;7.82;7.13;;;;;;;28.29;55.35;101479.56;5032026;28;20048;-55
2023/08/21 03:02:43;;;;;;;7.47;6.78;;;;;;;28.30;55.12;101481.25;5032479;28;20045;-55
2023/08/21 03:05:13;;;;;;;7.85;7.05;;;;;;;28.30;55.35;101483.97;5033107;28;20064;-55
2023/08/21 03:07:40;;;;;;;6.80;6.10;;;;;;;28.31;55.34;101482.94;5033262;28;20045;-56
2023/08/21 03:10:08;;;;;;;6.90;6.20;;;;;;;28.31;55.59;101488.38;5033866;28;20045;-56
2023/08/21 03:12:36;;;;;;;8.10;6.63;;;;;;;28.32;55.11;101484.66;5032887;28;20049;-56
2023/08/21 03:15:04;;;;;;;7.45;6.55;;;;;;;28.31;55.66;101488.38;5031599;28;20053;-56
2023/08/21 03:17:32;;;;;;;7.93;7.10;;;;;;;28.31;55.54;101483.78;5033566;28;20076;-56
2023/08/21 03:19:59;;;;;;;7.53;6.93;;;;;;;28.32;55.58;101492.81;5032018;28;20054;-56
2023/08/21 03:22:27;;;;;;;8.38;6.30;;;;;;;28.32;55.56;101495.53;5030991;28;20053;-57
2023/08/21 03:24:54;;;;;;;7.38;6.68;;;;;;;28.32;55.49;101490.09;5036929;28;20053;-56
2023/08/21 03:27:22;;;;;;;7.40;6.68;;;;;;;28.32;55.18;101484.66;5043230;28;20049;-57
2023/08/21 03:29:49;;;;;;;8.07;7.28;;;;;;;28.33;55.02;101480.91;5041744;28;20061;-57
2023/08/21 03:32:17;;;;;;;7.28;6.68;;;;;;;28.31;55.05;101485.66;5034598;28;20049;-57
2023/08/21 03:34:45;;;;;;;7.88;7.18;;;;;;;28.31;55.12;101488.38;5034679;28;20053;-57
2023/08/21 03:37:12;;;;;;;7.82;7.03;;;;;;;28.30;54.81;101482.09;5050340;28;20090;-59
2023/08/21 03:39:40;;;;;;;7.05;6.45;;;;;;;28.31;55.00;101482.94;5040959;28;20436;-60
2023/08/21 03:42:10;;;;;;;7.80;7.10;;;;;;;28.30;54.84;101487.53;5050241;28;20072;-60
2023/08/21 03:44:39;;;;;;;8.10;7.30;;;;;;;28.31;54.62;101483.78;5043002;28;20503;-60
2023/08/21 03:47:08;;;;;;;7.53;6.82;;;;;;;28.30;54.82;101486.69;5050563;28;20049;-60
2023/08/21 03:49:44;;;;;;;8.07;7.38;;;;;;;28.30;54.64;101482.09;5035518;28;20050;-60
2023/08/21 03:52:12;;;;;;;9.05;8.15;;;;;;;28.30;54.56;101486.69;5034747;28;20499;-60
2023/08/21 03:54:39;;;;;;;7.18;6.57;;;;;;;28.30;54.41;101481.25;5036039;28;20859;-60
2023/08/21 03:57:08;;;;;;;7.25;6.65;;;;;;;28.30;54.13;101492.13;5036807;28;20049;-59
2023/08/21 03:59:37;;;;;;;7.82;7.03;;;;;;;28.30;54.07;101490.25;5035532;28;20057;-56
2023/08/21 04:02:05;;;;;;;7.50;6.80;;;;;;;28.30;54.32;101497.59;5035334;28;20048;-56
2023/08/21 04:04:32;;;;;;;8.30;7.20;;;;;;;28.30;53.86;101494.84;5036295;28;20056;-56
2023/08/21 04:07:00;;;;;;;7.97;7.28;;;;;;;28.30;54.09;101492.97;5035034;28;20053;-57
2023/08/21 04:09:27;;;;;;;7.38;6.65;;;;;;;28.30;53.82;101492.13;5036271;28;20041;-57
2023/08/21 04:11:54;;;;;;;7.95;7.15;;;;;;;28.30;54.13;101497.59;5034356;28;20052;-56
2023/08/21 04:14:22;;;;;;;8.30;6.82;;;;;;;28.30;54.07;101498.44;5034776;28;20053;-56
2023/08/21 04:16:49;;;;;;;8.00;7.20;;;;;;;28.31;53.98;101499.28;5047878;28;20049;-56
2023/08/21 04:19:19;;;;;;;7.32;6.60;;;;;;;28.30;53.68;101498.44;5029554;28;20057;-60
2023/08/21 04:21:47;;;;;;;7.55;6.57;;;;;;;28.30;53.73;101503.03;5035667;28;20096;-60
2023/08/21 04:24:14;;;;;;;7.13;6.47;;;;;;;28.30;53.68;101503.88;5034602;28;20049;-60
2023/08/21 04:26:41;;;;;;;7.78;7.07;;;;;;;28.30;53.96;101497.59;5048038;28;20064;-59
2023/08/21 04:29:09;;;;;;;8.35;7.55;;;;;;;28.31;53.81;101500.13;5038632;28;20052;-60
2023/08/21 04:31:37;;;;;;;7.35;6.65;;;;;;;28.30;53.75;101495.69;5035469;28;20381;-60
2023/08/21 04:34:04;;;;;;;8.48;7.57;;;;;;;28.30;53.81;101500.31;5048369;28;20071;-60
2023/08/21 04:36:33;;;;;;;7.50;6.70;;;;;;;28.30;53.58;101503.88;5040119;28;20496;-60
2023/08/21 04:39:00;;;;;;;7.82;6.93;;;;;;;28.31;53.88;101502.84;5035465;28;20053;-60
2023/08/21 04:41:28;;;;;;;9.68;6.93;;;;;;;28.30;53.81;101498.44;5034207;28;20046;-60
2023/08/21 04:43:55;;;;;;;8.15;7.35;;;;;;;28.31;53.66;101502.00;5035264;28;20057;-60
2023/08/21 04:46:24;;;;;;;7.07;6.47;;;;;;;28.31;53.93;101500.13;5034035;28;20060;-60
2023/08/21 04:48:52;;;;;;;8.20;7.40;;;;;;;28.31;53.62;101500.13;5033269;28;20060;-57
2023/08/21 04:51:20;;;;;;;8.32;7.63;;;;;;;28.32;53.45;101509.16;5034703;28;20057;-57
2023/08/21 04:53:48;;;;;;;7.22;6.57;;;;;;;28.32;53.41;101511.88;5043960;28;20053;-57
2023/08/21 04:56:19;;;;;;;7.60;6.70;;;;;;;28.32;53.39;101506.44;5034852;28;20061;-57
2023/08/21 04:58:47;;;;;;;7.43;6.75;;;;;;;28.31;53.68;101505.56;5033596;28;20056;-56
2023/08/21 05:01:16;;;;;;;8.50;7.50;;;;;;;28.32;53.52;101511.88;5035836;28;20506;-57
2023/08/21 05:03:47;;;;;;;8.35;7.32;;;;;;;28.31;53.68;101510.16;5035779;28;20042;-57
2023/08/21 05:06:15;;;;;;;8.63;7.72;;;;;;;28.31;53.71;101515.59;5041452;28;20056;-57
2023/08/21 05:08:44;;;;;;;7.72;7.03;;;;;;;28.30;53.74;101517.50;5036759;28;20984;-60
2023/08/21 05:11:11;;;;;;;9.45;7.80;;;;;;;28.31;53.55;101515.59;5046458;28;20041;-60
2023/08/21 05:13:41;;;;;;;7.68;6.88;;;;;;;28.31;53.37;101518.34;5044745;28;20055;-60
2023/08/21 05:16:11;;;;;;;8.40;7.57;;;;;;;28.32;53.78;101528.22;5033334;28;20061;-60
2023/08/21 05:18:40;;;;;;;8.90;7.55;;;;;;;28.33;53.58;101527.19;5048276;28;20560;-57
2023/08/21 05:21:08;;;;;;;8.25;7.13;;;;;;;28.30;53.69;101528.38;5041121;28;20057;-57
2023/08/21 05:23:36;;;;;;;8.25;7.45;;;;;;;28.31;53.32;101523.78;5040652;28;20053;-58
2023/08/21 05:26:07;;;;;;;8.20;7.40;;;;;;;28.31;53.36;101529.22;5048228;28;20057;-57
2023/08/21 05:28:34;;;;;;;8.43;7.63;;;;;;;28.32;53.44;101539.97;5037672;28;20053;-57
2023/08/21 05:31:02;;;;;;;8.02;7.22;;;;;;;28.32;53.42;101533.66;5043951;28;20053;-57
2023/08/21 05:33:41;;;;;;;7.70;7.00;;;;;;;28.31;53.56;101530.06;5046985;28;20053;-57
2023/08/21 05:36:09;;;;;;;7.80;7.00;;;;;;;28.32;53.32;101541.84;5035215;28;20065;-58
2023/08/21 05:38:37;;;;;;;8.23;7.45;;;;;;;28.31;53.76;101532.78;5039386;28;20049;-61
2023/08/21 05:41:05;;;;;;;7.75;7.05;;;;;;;28.32;53.37;101539.97;5041710;28;20053;-61
2023/08/21 05:43:34;;;;;;;8.15;7.35;;;;;;;28.33;53.61;101546.25;5047096;28;20049;-61
2023/08/21 05:46:02;;;;;;;8.68;7.88;;;;;;;28.33;53.93;101538.94;5035928;28;20064;-61
2023/08/21 05:48:29;;;;;;;9.02;7.13;;;;;;;28.33;53.94;101541.66;5039401;28;20056;-61
2023/08/21 05:50:57;;;;;;;8.25;7.45;;;;;;;28.34;53.50;101542.50;5041596;28;20419;-61
2023/08/21 05:53:25;;;;;;;7.53;6.82;;;;;;;28.34;54.13;101548.78;5046427;28;20060;-61
2023/08/21 05:55:54;;;;;;;8.00;7.20;;;;;;;28.35;53.81;101545.03;5036124;28;20045;-61
2023/08/21 05:58:22;;;;;;;8.07;7.28;;;;;;;28.34;53.93;101546.06;5044832;28;20078;-61
2023/08/21 06:00:50;;;;;;;8.10;7.40;;;;;;;28.36;54.19;101554.13;5043721;28;20530;-61
2023/08/21 06:03:17;;;;;;;7.97;7.28;;;;;;;28.35;54.14;101549.63;5033193;28;20045;-61
2023/08/21 06:06:05;;;;;;;7.93;7.22;;;;;;;28.37;53.74;101552.25;5033785;28;20076;-61
2023/08/21 06:08:32;;;;;;;8.18;7.32;;;;;;;28.38;53.90;101546.59;5046521;28;20055;-58
2023/08/21 06:11:00;;;;;;;7.47;6.80;;;;;;;28.38;53.96;101551.22;5039807;28;20045;-58
2023/08/21 06:13:27;;;;;;;8.63;7.15;;;;;;;28.39;54.18;101547.44;5033739;28;20053;-57
2023/08/21 06:15:56;;;;;;;7.55;6.85;;;;;;;28.38;53.88;101552.06;5046183;28;20066;-58
2023/08/21 06:18:24;;;;;;;8.50;7.70;;;;;;;28.41;53.92;101559.03;5041770;28;20053;-60
2023/08/21 06:20:54;;;;;;;7.90;7.20;;;;;;;28.42;53.89;101561.56;5033552;28;20049;-61
2023/08/21 06:23:22;;;;;;;7.82;7.03;;;;;;;28.42;53.67;101555.28;5031757;28;20050;-61
2023/08/21 06:25:50;;;;;;;7.97;7.07;;;;;;;28.42;53.95;101556.13;5032334;28;20049;-61
2023/08/21 06:28:20;;;;;;;8.63;7.70;;;;;;;28.43;54.33;101552.38;5040598;28;20052;-61
2023/08/21 06:30:56;;;;;;;8.10;7.40;;;;;;;28.44;54.66;101564.09;5035671;28;20060;-61
2023/08/21 06:33:24;;;;;;;8.05;7.30;;;;;;;28.43;54.35;101562.41;5032545;28;20045;-59
2023/08/21 06:35:52;;;;;;;9.20;8.25;;;;;;;28.43;54.59;101568.72;5031864;28;20064;-59
2023/08/21 06:38:19;;;;;;;8.65;7.85;;;;;;;28.43;54.83;101568.72;5033057;28;20496;-60
2023/08/21 06:40:46;;;;;;;9.35;8.45;;;;;;;28.44;54.56;101572.28;5046780;28;20057;-60
2023/08/21 06:43:14;;;;;;;8.63;7.80;;;;;;;28.44;54.56;101569.56;5036840;28;20045;-60
2023/08/21 06:45:46;;;;;;;10.25;9.15;;;;;;;28.43;54.67;101567.88;5042755;28;20064;-60
2023/08/21 06:48:14;;;;;;;9.90;9.00;;;;;;;28.43;54.55;101576.88;5036719;28;20064;-60
2023/08/21 06:50:41;;;;;;;9.50;8.60;;;;;;;28.43;54.73;101574.16;5046804;28;20060;-60
2023/08/21 06:53:09;;;;;;;11.90;9.75;;;;;;;28.41;54.89;101570.78;5046887;28;20041;-60
2023/08/21 06:55:36;;;;;;;9.43;8.55;;;;;;;28.43;55.31;101568.72;5044742;28;20422;-60
2023/08/21 06:58:04;;;;;;;12.20;9.80;;;;;;;28.44;54.62;101573.16;5041982;28;20049;-60
2023/08/21 07:00:31;;;;;;;10.38;9.30;;;;;;;28.44;55.01;101573.16;5053587;28;20045;-60
2023/08/21 07:02:58;;;;;;;10.93;9.80;;;;;;;28.44;54.81;101575.88;5040482;28;20057;-60
2023/08/21 07:05:26;;;;;;;9.45;8.60;;;;;;;28.44;54.88;101575.88;5043895;28;20041;-60
2023/08/21 07:07:54;;;;;;;10.85;8.15;;;;;;;28.44;54.88;101569.56;5039669;28;20578;-60
2023/08/21 07:10:22;;;;;;;10.68;9.50;;;;;;;28.44;54.06;101570.44;5046517;28;20522;-61
2023/08/21 07:12:49;;;;;;;10.48;9.48;;;;;;;28.45;53.86;101574.84;5041197;28;20097;-60
2023/08/21 07:15:17;;;;;;;10.30;9.40;;;;;;;28.46;54.19;101573.81;5039725;28;20059;-58
2023/08/21 07:17:44;;;;;;;10.05;9.15;;;;;;;28.47;53.91;101574.66;5039749;28;20056;-57
2023/08/21 07:20:12;;;;;;;9.43;8.52;;;;;;;28.47;53.60;101580.13;5038785;28;20327;-59
2023/08/21 07:22:39;;;;;;;9.10;8.20;;;;;;;28.46;53.48;101578.41;5036696;28;20042;-58
2023/08/21 07:25:07;;;;;;;9.73;8.77;;;;;;;28.46;53.54;101573.81;5037500;28;20380;-56
2023/08/21 07:27:35;;;;;;;9.55;8.30;;;;;;;28.47;53.85;101571.94;5039357;28;20056;-61
2023/08/21 07:30:03;;;;;;;9.25;8.35;;;;;;;28.47;53.58;101580.97;5036406;28;20049;-62
2023/08/21 07:32:30;;;;;;;9.52;8.63;;;;;;;28.49;53.17;101588.97;5036237;28;20045;-60
2023/08/21 07:34:57;;;;;;;9.13;8.23;;;;;;;28.49;53.22;101569.91;5036705;28;20415;-55
2023/08/21 07:37:25;;;;;;;9.50;8.60;;;;;;;28.50;53.29;101569.72;5039355;28;20050;-59
2023/08/21 07:39:53;;;;;;;9.75;8.85;;;;;;;28.52;53.35;101573.13;5039974;28;20072;-60
2023/08/21 07:42:20;;;;;;;8.70;7.80;;;;;;;28.53;53.59;101580.28;5045174;28;20053;-59
2023/08/21 07:44:48;;;;;;;8.75;7.85;;;;;;;28.56;54.00;101577.22;5039280;28;20045;-61
2023/08/21 07:47:16;;;;;;;9.80;8.80;;;;;;;28.58;53.72;101577.88;5045244;28;20056;-58
2023/08/21 07:49:44;;;;;;;9.73;8.73;;;;;;;28.59;53.62;101576.84;5060366;28;20045;-59
2023/08/21 07:52:11;;;;;;;9.27;8.27;;;;;;;28.62;53.68;101570.19;5035199;28;20046;-57
2023/08/21 07:54:38;;;;;;;9.90;8.90;;;;;;;28.63;53.51;101571.03;5035880;28;20416;-60
2023/08/21 07:57:06;;;;;;;9.70;8.73;;;;;;;28.65;53.61;101575.31;5036693;28;20383;-57
2023/08/21 07:59:33;;;;;;;8.57;7.70;;;;;;;28.67;53.53;101569.66;5036131;28;20045;-57
2023/08/21 08:02:02;;;;;;;9.35;8.40;;;;;;;28.69;53.28;101573.06;5035586;28;20068;-57
2023/08/21 08:04:30;;;;;;;10.00;8.63;;;;;;;28.70;53.15;101575.63;5035687;28;20448;-58
2023/08/21 08:06:58;;;;;;;9.43;8.35;;;;;;;28.71;53.17;101571.00;5042121;28;20044;-58
2023/08/21 08:09:25;;;;;;;12.13;8.90;;;;;;;28.73;53.25;101572.53;5039549;28;20056;-63
2023/08/21 08:11:52;;;;;;;8.50;7.75;;;;;;;28.75;53.73;101573.19;5040160;28;20060;-61
2023/08/21 08:14:20;;;;;;;10.00;9.10;;;;;;;28.77;53.46;101570.31;5046943;28;20041;-62
2023/08/21 08:16:47;;;;;;;10.15;8.70;;;;;;;28.79;53.60;101571.81;5047207;28;20048;-59
2023/08/21 08:19:14;;;;;;;8.75;7.85;;;;;;;28.81;53.71;101568.94;5049775;28;20403;-57
2023/08/21 08:21:42;;;;;;;9.40;8.48;;;;;;;28.81;53.65;101568.94;5050712;28;20076;-48
2023/08/21 08:24:09;;;;;;;10.05;9.15;;;;;;;28.81;54.15;101561.59;5043571;28;20044;-49
2023/08/21 08:26:37;;;;;;;10.20;9.10;;;;;;;28.84;54.08;101568.56;5050711;28;20352;-58
2023/08/21 08:29:05;;;;;;;9.40;8.32;;;;;;;28.83;53.76;101565.00;5045036;28;20042;-59
2023/08/21 08:31:32;;;;;;;10.15;9.15;;;;;;;28.84;53.30;101563.09;5050614;28;20056;-59
2023/08/21 08:33:59;;;;;;;10.55;9.32;;;;;;;28.86;53.09;101566.53;5043431;28;20495;-59
2023/08/21 08:36:27;;;;;;;9.57;8.68;;;;;;;28.87;53.19;101557.31;5042353;28;20496;-58
2023/08/21 08:38:54;;;;;;;10.48;9.48;;;;;;;28.88;52.97;101561.72;5049879;28;20056;-60
2023/08/21 08:41:39;;;;;;;10.45;9.45;;;;;;;28.90;53.03;101567.88;5039181;28;20049;-59
2023/08/21 08:44:07;;;;;;;10.50;9.50;;;;;;;28.92;52.97;101559.50;5043773;28;20052;-59
2023/08/21 08:46:36;;;;;;;9.73;8.82;;;;;;;28.94;53.20;101566.47;5038718;28;20483;-61
2023/08/21 08:49:03;;;;;;;10.30;9.40;;;;;;;28.94;53.10;101561.03;5036801;28;20046;-58
2023/08/21 08:51:34;;;;;;;10.57;9.57;;;;;;;28.96;52.83;101550.78;5035044;28;20046;-59
2023/08/21 08:54:03;;;;;;;10.57;9.57;;;;;;;28.98;52.88;101550.66;5039267;28;20044;-58
2023/08/21 08:56:31;;;;;;;10.20;9.20;;;;;;;29.00;53.26;101560.34;5035119;28;20045;-57
2023/08/21 08:58:58;;;;;;;10.35;9.35;;;;;;;29.02;53.04;101563.75;5034711;28;20053;-57
2023/08/21 09:01:25;;;;;;;9.70;8.80;;;;;;;29.02;53.15;101549.28;5034705;28;20053;-58
2023/08/21 09:03:53;;;;;;;9.77;8.88;;;;;;;29.03;53.31;101543.63;5035136;28;20769;-57
2023/08/21 09:06:21;;;;;;;10.07;9.15;;;;;;;29.03;53.05;101550.97;5033779;28;20053;-57
2023/08/21 09:08:55;;;;;;;10.27;9.27;;;;;;;29.04;53.55;101550.78;5034181;28;20045;-58
2023/08/21 09:11:23;;;;;;;9.80;8.88;;;;;;;29.04;53.37;101547.19;5034774;28;20512;-59
2023/08/21 09:13:53;;;;;;;9.23;8.43;;;;;;;29.05;53.60;101548.91;5034633;28;20412;-59
2023/08/21 09:16:22;;;;;;;10.35;9.45;;;;;;;29.05;53.37;101547.03;5034400;28;20041;-59
2023/08/21 09:18:51;;;;;;;9.82;8.93;;;;;;;29.07;53.21;101544.13;5034271;28;20058;-59
2023/08/21 09:21:19;;;;;;;9.77;8.88;;;;;;;29.06;53.54;101546.00;5033877;28;20403;-58
2023/08/21 09:23:48;;;;;;;9.75;8.85;;;;;;;29.05;53.77;101541.59;5034613;28;20037;-58
2023/08/21 09:26:23;;;;;;;10.23;9.25;;;;;;;29.07;53.52;101536.78;5033849;28;20053;-58
2023/08/21 09:28:52;;;;;;;11.68;10.02;;;;;;;29.10;53.51;101537.47;5034623;28;20054;-55
2023/08/21 09:31:26;;;;;;;9.95;9.05;;;;;;;29.09;53.68;101542.06;5034231;28;20056;-56
2023/08/21 09:33:59;;;;;;;9.73;8.80;;;;;;;29.10;53.56;101543.78;5034307;28;20235;-56
2023/08/21 09:36:27;;;;;;;10.63;9.70;;;;;;;29.10;53.51;101540.19;5040018;28;20081;-56
2023/08/21 09:38:55;;;;;;;10.88;9.98;;;;;;;29.08;53.40;101534.91;5034337;28;20048;-57
2023/08/21 09:41:24;;;;;;;10.23;9.25;;;;;;;29.06;53.74;101532.38;5045116;28;20056;-57
2023/08/21 09:43:51;;;;;;;10.35;9.35;;;;;;;29.06;53.56;101529.66;5038164;28;20048;-58
2023/08/21 09:46:26;;;;;;;10.00;9.20;;;;;;;29.08;53.52;101524.00;5032867;28;20056;-48
2023/08/21 09:48:54;;;;;;;10.15;9.25;;;;;;;29.07;53.50;101523.16;5033089;28;20072;-55
2023/08/21 09:51:21;;;;;;;9.93;9.02;;;;;;;29.09;53.87;101523.00;5033512;28;20052;-49
2023/08/21 09:53:49;;;;;;;10.07;9.18;;;;;;;29.10;53.54;101521.13;5033337;28;20048;-48
2023/08/21 09:56:19;;;;;;;10.05;9.15;;;;;;;29.12;53.58;101510.84;5033114;28;20060;-50
2023/08/21 09:58:50;;;;;;;10.23;9.23;;;;;;;29.13;53.36;101513.44;5033449;28;20049;-59
2023/08/21 10:01:21;;;;;;;10.20;9.30;;;;;;;29.13;53.67;101515.28;5035871;28;20060;-59
2023/08/21 10:03:49;;;;;;;10.52;9.57;;;;;;;29.12;53.54;101508.97;5037494;28;20053;-59
2023/08/21 10:06:20;;;;;;;10.63;9.63;;;;;;;29.12;53.41;101502.69;5034174;28;20064;-59
2023/08/21 10:08:54;;;;;;;9.68;8.60;;;;;;;29.13;53.31;101505.25;5033985;28;20041;-60
2023/08/21 10:11:22;;;;;;;;;;;;;;;29.13;53.12;101509.81;5048365;28;20053;-59
2023/08/21 10:13:51;;;;;;;10.60;9.63;;;;;;;29.16;53.00;101506.75;5037232;28;19921;-59
2023/08/21 10:16:21;;;;;;;10.20;9.13;;;;;;;29.17;52.82;101509.31;5045107;28;20068;-59
2023/08/21 10:18:49;;;;;;;10.00;9.07;;;;;;;29.18;53.06;101504.69;5043022;28;20064;-59
2023/08/21 10:21:21;;;;;;;10.48;9.55;;;;;;;29.18;53.04;101500.09;5047792;28;20049;-60
2023/08/21 10:23:51;;;;;;;10.70;9.70;;;;;;;29.19;53.29;101498.22;5037920;28;20052;-57
2023/08/21 10:26:20;;;;;;;9.75;8.85;;;;;;;29.19;53.38;101490.88;5049717;28;20052;-58
2023/08/21 10:28:54;;;;;;;10.48;9.48;;;;;;;29.21;53.98;101490.69;5040129;28;20045;-51
2023/08/21 10:31:36;;;;;;;10.35;9.45;;;;;;;29.18;55.76;101486.47;5048594;28;20094;-52
2023/08/21 10:34:12;;;;;;;11.23;10.13;;;;;;;29.17;56.32;101487.50;5041389;28;20048;-53
2023/08/21 10:36:43;;;;;;;11.15;10.13;;;;;;;29.15;56.84;101481.34;5032341;28;20050;-50
2023/08/21 10:39:24;;;;;;;11.30;10.20;;;;;;;29.14;57.35;101487.00;5033150;28;20052;-51
2023/08/21 10:42:05;;;;;;;10.52;9.73;;;;;;;29.11;57.55;101485.47;5035889;28;20061;-51
2023/08/21 10:44:36;;;;;;;9.80;8.95;;;;;;;29.09;57.84;101484.81;5032414;28;20488;-59
2023/08/21 10:47:23;;;;;;;11.57;10.52;;;;;;;29.06;58.11;101483.31;5035453;28;20046;-59
2023/08/21 10:49:55;;;;;;;11.57;10.57;;;;;;;29.06;58.03;101471.53;5043987;28;20056;-59
2023/08/21 10:52:46;;;;;;;11.27;10.27;;;;;;;29.05;58.47;101478.88;5039503;28;20045;-58
2023/08/21 10:55:15;;;;;;;10.95;9.95;;;;;;;29.04;58.74;101470.88;5035677;28;20735;-60
2023/08/21 10:57:46;;;;;;;11.43;10.50;;;;;;;29.03;58.67;101475.47;5033490;28;20045;-49
2023/08/21 11:00:20;;;;;;;10.88;9.88;;;;;;;29.03;58.84;101466.44;5045051;28;20514;-51
2023/08/21 11:02:50;;;;;;;10.25;9.35;;;;;;;29.02;59.09;101471.06;5035040;28;20045;-50
2023/08/21 11:05:17;;;;;;;11.00;10.00;;;;;;;29.02;59.37;101473.78;5032754;28;20057;-57
2023/08/21 11:07:49;;;;;;;10.68;9.75;;;;;;;29.03;60.09;101461.84;5032572;28;20396;-50
2023/08/21 11:10:18;;;;;;;10.15;9.27;;;;;;;29.03;60.21;101466.44;5032394;28;20050;-50
2023/08/21 11:12:55;;;;;;;11.98;10.88;;;;;;;29.02;60.48;101465.59;5048128;28;20049;-51
2023/08/21 11:15:24;;;;;;;11.63;10.32;;;;;;;29.03;60.36;101463.72;5041191;28;20048;-58
2023/08/21 11:18:00;;;;;;;10.35;9.45;;;;;;;29.02;60.54;101460.16;5039962;28;20045;-58
2023/08/21 11:20:32;;;;;;;11.77;10.77;;;;;;;29.00;60.64;101451.28;5047676;28;20052;-51
2023/08/21 11:23:02;;;;;;;11.43;10.43;;;;;;;29.01;60.67;101463.91;5038961;28;20049;-54
2023/08/21 11:25:30;;;;;;;10.68;9.68;;;;;;;29.00;60.96;101458.63;5041924;28;20042;-58
2023/08/21 11:27:58;;;;;;;11.40;10.40;;;;;;;29.01;60.72;101452.16;5046232;28;20521;-59
2023/08/21 11:30:25;;;;;;;11.10;10.02;;;;;;;29.01;61.16;101453.00;5036758;28;20056;-56
2023/08/21 11:33:09;;;;;;;11.80;10.80;;;;;;;29.00;61.38;101448.56;5045189;28;20112;-50